Wales Center, New York
Current Conditions -  °F | °C
As of 4:54 PM on Wednesday 28 Jan 2015 (Local Time) from KBUF Reporting Station
Few Clouds Few Clouds  
Wind Chill: 10°   Ceiling: Unl
Heat Index: 20°   Visibility: 10mi
Dew Point: 11°   Wind: 8mph
Humidity: 68%   Direction: 230°SW
Pressure: 30.29"   Gusts: NA
Location:  42.77°N, 78.53°W
Report Text: KBUF 282154Z 23007KT 10SM FEW200 FEW250 M07/M12 A3029 RMK AO2 SLP275 T10671117
Loading
Personal Weather Stations






























Interactive Weather Map New forecast layout! Learn more

10-Day Weather Forecast

Advertisements
Track Severe Weather on mobile